sensor_id;sensor_type;location;lat;lon;timestamp;pressure;altitude;pressure_sealevel;temperature;humidity
73671;BME280;61968;48.178;11.566;2023-05-20T00:00:19;95768.50;;;14.63;41.29
73671;BME280;61968;48.178;11.566;2023-05-20T00:02:46;95756.50;;;14.60;41.01
73671;BME280;61968;48.178;11.566;2023-05-20T00:05:12;95757.03;;;14.57;40.84
73671;BME280;61968;48.178;11.566;2023-05-20T00:07:39;95758.88;;;14.57;40.91
73671;BME280;61968;48.178;11.566;2023-05-20T00:10:06;95758.81;;;14.46;41.25
73671;BME280;61968;48.178;11.566;2023-05-20T00:12:34;95751.41;;;14.48;41.37
73671;BME280;61968;48.178;11.566;2023-05-20T00:15:00;95758.78;;;14.41;41.47
73671;BME280;61968;48.178;11.566;2023-05-20T00:17:27;95757.59;;;14.32;41.25
73671;BME280;61968;48.178;11.566;2023-05-20T00:19:53;95763.81;;;14.38;41.97
73671;BME280;61968;48.178;11.566;2023-05-20T00:22:20;95762.28;;;14.47;41.24
73671;BME280;61968;48.178;11.566;2023-05-20T00:24:47;95758.53;;;14.43;41.45
73671;BME280;61968;48.178;11.566;2023-05-20T00:27:13;95755.50;;;14.34;41.30
73671;BME280;61968;48.178;11.566;2023-05-20T00:29:41;95756.00;;;14.31;41.46
73671;BME280;61968;48.178;11.566;2023-05-20T00:32:07;95749.56;;;14.27;41.78
73671;BME280;61968;48.178;11.566;2023-05-20T00:34:34;95741.97;;;14.36;41.28
73671;BME280;61968;48.178;11.566;2023-05-20T00:37:00;95749.19;;;14.40;41.26
73671;BME280;61968;48.178;11.566;2023-05-20T00:39:27;95753.44;;;14.36;41.08
73671;BME280;61968;48.178;11.566;2023-05-20T00:41:54;95753.25;;;14.21;41.64
73671;BME280;61968;48.178;11.566;2023-05-20T00:44:21;95756.13;;;14.14;41.61
73671;BME280;61968;48.178;11.566;2023-05-20T00:46:50;95765.22;;;14.18;41.81
73671;BME280;61968;48.178;11.566;2023-05-20T00:49:16;95759.06;;;14.18;41.58
73671;BME280;61968;48.178;11.566;2023-05-20T00:51:43;95753.50;;;14.19;41.84
73671;BME280;61968;48.178;11.566;2023-05-20T00:54:10;95753.06;;;14.27;41.63
73671;BME280;61968;48.178;11.566;2023-05-20T00:56:37;95756.56;;;14.33;41.78
73671;BME280;61968;48.178;11.566;2023-05-20T00:59:04;95758.75;;;14.36;41.76
73671;BME280;61968;48.178;11.566;2023-05-20T01:01:30;95753.44;;;14.36;41.45
73671;BME280;61968;48.178;11.566;2023-05-20T01:03:59;95751.56;;;14.37;41.87
73671;BME280;61968;48.178;11.566;2023-05-20T01:06:25;95746.47;;;14.35;41.37
73671;BME280;61968;48.178;11.566;2023-05-20T01:08:52;95742.19;;;14.34;41.60
73671;BME280;61968;48.178;11.566;2023-05-20T01:11:31;95734.31;;;14.39;41.67
73671;BME280;61968;48.178;11.566;2023-05-20T01:14:02;95744.44;;;14.47;41.38
73671;BME280;61968;48.178;11.566;2023-05-20T01:16:31;95744.69;;;14.41;41.32
73671;BME280;61968;48.178;11.566;2023-05-20T01:19:01;95738.56;;;14.40;41.79
73671;BME280;61968;48.178;11.566;2023-05-20T01:21:29;95738.19;;;14.32;41.60
73671;BME280;61968;48.178;11.566;2023-05-20T01:23:57;95732.16;;;14.36;41.54
73671;BME280;61968;48.178;11.566;2023-05-20T01:26:26;95732.94;;;14.37;41.59
73671;BME280;61968;48.178;11.566;2023-05-20T01:28:52;95739.63;;;14.39;41.65
73671;BME280;61968;48.178;11.566;2023-05-20T01:31:23;95736.41;;;14.37;41.35
73671;BME280;61968;48.178;11.566;2023-05-20T01:33:54;95731.50;;;14.29;41.57
73671;BME280;61968;48.178;11.566;2023-05-20T01:36:23;95721.94;;;14.28;41.92
73671;BME280;61968;48.178;11.566;2023-05-20T01:38:52;95726.47;;;14.27;42.02
73671;BME280;61968;48.178;11.566;2023-05-20T01:41:22;95726.91;;;14.19;41.67
73671;BME280;61968;48.178;11.566;2023-05-20T01:43:49;95731.97;;;14.21;41.79
73671;BME280;61968;48.178;11.566;2023-05-20T01:46:16;95730.72;;;14.28;41.92
73671;BME280;61968;48.178;11.566;2023-05-20T01:48:42;95721.94;;;14.28;41.85
73671;BME280;61968;48.178;11.566;2023-05-20T01:51:09;95716.34;;;14.30;41.77
73671;BME280;61968;48.178;11.566;2023-05-20T01:53:36;95717.72;;;14.32;41.70
73671;BME280;61968;48.178;11.566;2023-05-20T01:56:04;95727.72;;;14.20;42.01
73671;BME280;61968;48.178;11.566;2023-05-20T01:58:32;95723.25;;;14.25;42.00
73671;BME280;61968;48.178;11.566;2023-05-20T02:00:58;95721.16;;;14.27;42.09
73671;BME280;61968;48.178;11.566;2023-05-20T02:03:25;95719.00;;;14.24;41.88
73671;BME280;61968;48.178;11.566;2023-05-20T02:05:52;95718.69;;;14.21;42.08
73671;BME280;61968;48.178;11.566;2023-05-20T02:08:18;95713.69;;;14.30;41.89
73671;BME280;61968;48.178;11.566;2023-05-20T02:10:46;95714.50;;;14.30;41.62
73671;BME280;61968;48.178;11.566;2023-05-20T02:13:13;95718.38;;;14.17;41.94
73671;BME280;61968;48.178;11.566;2023-05-20T02:15:41;95714.69;;;14.18;42.22
73671;BME280;61968;48.178;11.566;2023-05-20T02:18:08;95708.81;;;14.16;41.73
73671;BME280;61968;48.178;11.566;2023-05-20T02:20:36;95704.47;;;14.05;42.31
73671;BME280;61968;48.178;11.566;2023-05-20T02:23:03;95704.25;;;14.12;42.42
73671;BME280;61968;48.178;11.566;2023-05-20T02:25:30;95715.88;;;14.05;42.09
73671;BME280;61968;48.178;11.566;2023-05-20T02:27:56;95722.22;;;13.99;42.57
73671;BME280;61968;48.178;11.566;2023-05-20T02:30:23;95719.38;;;14.06;42.35
73671;BME280;61968;48.178;11.566;2023-05-20T02:32:51;95719.91;;;14.08;42.40
73671;BME280;61968;48.178;11.566;2023-05-20T02:35:17;95724.19;;;14.09;42.24
73671;BME280;61968;48.178;11.566;2023-05-20T02:37:44;95719.25;;;13.96;42.53
73671;BME280;61968;48.178;11.566;2023-05-20T02:40:12;95715.72;;;13.85;42.67
73671;BME280;61968;48.178;11.566;2023-05-20T02:42:39;95716.75;;;13.84;42.88
73671;BME280;61968;48.178;11.566;2023-05-20T02:45:07;95725.72;;;13.78;42.61
73671;BME280;61968;48.178;11.566;2023-05-20T02:47:33;95723.63;;;13.80;42.98
73671;BME280;61968;48.178;11.566;2023-05-20T02:50:01;95727.09;;;13.80;42.78
73671;BME280;61968;48.178;11.566;2023-05-20T02:52:28;95720.78;;;13.87;42.91
73671;BME280;61968;48.178;11.566;2023-05-20T02:54:54;95720.97;;;13.80;43.29
73671;BME280;61968;48.178;11.566;2023-05-20T02:57:21;95723.22;;;13.93;42.72
73671;BME280;61968;48.178;11.566;2023-05-20T02:59:47;95715.31;;;13.98;42.86
73671;BME280;61968;48.178;11.566;2023-05-20T03:02:14;95710.78;;;13.99;42.94
73671;BME280;61968;48.178;11.566;2023-05-20T03:04:40;95706.19;;;13.89;42.83
73671;BME280;61968;48.178;11.566;2023-05-20T03:07:08;95706.78;;;13.96;42.86
73671;BME280;61968;48.178;11.566;2023-05-20T03:09:35;95705.47;;;13.99;42.85
73671;BME280;61968;48.178;11.566;2023-05-20T03:12:02;95711.59;;;13.99;42.95
73671;BME280;61968;48.178;11.566;2023-05-20T03:14:28;95716.09;;;13.99;42.93
73671;BME280;61968;48.178;11.566;2023-05-20T03:16:55;95723.84;;;14.00;42.91
73671;BME280;61968;48.178;11.566;2023-05-20T03:19:21;95717.09;;;13.93;43.21
73671;BME280;61968;48.178;11.566;2023-05-20T03:21:48;95709.63;;;13.90;42.99
73671;BME280;61968;48.178;11.566;2023-05-20T03:24:16;95712.66;;;13.98;43.07
73671;BME280;61968;48.178;11.566;2023-05-20T03:26:43;95718.03;;;14.03;42.95
73671;BME280;61968;48.178;11.566;2023-05-20T03:29:11;95714.81;;;14.01;42.54
73671;BME280;61968;48.178;11.566;2023-05-20T03:31:37;95725.50;;;14.07;42.89
73671;BME280;61968;48.178;11.566;2023-05-20T03:34:04;95716.44;;;14.08;43.00
73671;BME280;61968;48.178;11.566;2023-05-20T03:36:30;95709.53;;;14.07;43.34
73671;BME280;61968;48.178;11.566;2023-05-20T03:38:56;95721.19;;;14.00;43.31
73671;BME280;61968;48.178;11.566;2023-05-20T03:41:24;95714.25;;;13.99;43.00
73671;BME280;61968;48.178;11.566;2023-05-20T03:43:51;95716.53;;;13.91;43.50
73671;BME280;61968;48.178;11.566;2023-05-20T03:46:17;95723.28;;;13.98;43.30
73671;BME280;61968;48.178;11.566;2023-05-20T03:48:44;95723.63;;;14.07;43.14
73671;BME280;61968;48.178;11.566;2023-05-20T03:51:10;95727.13;;;14.13;42.91
73671;BME280;61968;48.178;11.566;2023-05-20T03:53:37;95722.81;;;14.07;42.80
73671;BME280;61968;48.178;11.566;2023-05-20T03:56:04;95719.66;;;14.10;42.90
73671;BME280;61968;48.178;11.566;2023-05-20T03:58:31;95720.69;;;14.09;42.92
73671;BME280;61968;48.178;11.566;2023-05-20T04:00:59;95725.28;;;14.13;42.68
73671;BME280;61968;48.178;11.566;2023-05-20T04:03:26;95729.81;;;14.18;42.65
73671;BME280;61968;48.178;11.566;2023-05-20T04:05:53;95729.63;;;14.24;42.61
73671;BME280;61968;48.178;11.566;2023-05-20T04:08:19;95729.06;;;14.22;42.70
73671;BME280;61968;48.178;11.566;2023-05-20T04:10:46;95732.25;;;14.19;42.65
73671;BME280;61968;48.178;11.566;2023-05-20T04:13:12;95727.22;;;14.23;42.54
73671;BME280;61968;48.178;11.566;2023-05-20T04:15:40;95721.38;;;14.26;42.34
73671;BME280;61968;48.178;11.566;2023-05-20T04:18:07;95717.09;;;14.20;42.67
73671;BME280;61968;48.178;11.566;2023-05-20T04:20:34;95708.88;;;14.21;42.63
73671;BME280;61968;48.178;11.566;2023-05-20T04:23:01;95716.50;;;14.13;42.64
73671;BME280;61968;48.178;11.566;2023-05-20T04:25:27;95710.38;;;14.12;43.74
73671;BME280;61968;48.178;11.566;2023-05-20T04:27:54;95712.28;;;14.17;43.39
73671;BME280;61968;48.178;11.566;2023-05-20T04:30:21;95710.06;;;14.09;43.33
73671;BME280;61968;48.178;11.566;2023-05-20T04:32:50;95712.13;;;14.01;45.17
73671;BME280;61968;48.178;11.566;2023-05-20T04:35:17;95709.06;;;14.15;44.75
73671;BME280;61968;48.178;11.566;2023-05-20T04:37:43;95709.09;;;14.20;44.37
73671;BME280;61968;48.178;11.566;2023-05-20T04:40:13;95713.03;;;14.12;43.31
73671;BME280;61968;48.178;11.566;2023-05-20T04:42:39;95713.72;;;13.97;43.45
73671;BME280;61968;48.178;11.566;2023-05-20T04:45:08;95706.25;;;13.99;45.28
73671;BME280;61968;48.178;11.566;2023-05-20T04:47:34;95704.22;;;14.07;45.05
73671;BME280;61968;48.178;11.566;2023-05-20T04:50:06;95707.41;;;14.09;45.25
73671;BME280;61968;48.178;11.566;2023-05-20T04:52:35;95711.69;;;14.10;44.95
73671;BME280;61968;48.178;11.566;2023-05-20T04:55:01;95706.41;;;14.15;45.46
73671;BME280;61968;48.178;11.566;2023-05-20T04:57:28;95712.22;;;14.12;44.36
73671;BME280;61968;48.178;11.566;2023-05-20T04:59:54;95715.38;;;14.09;44.76
73671;BME280;61968;48.178;11.566;2023-05-20T05:02:23;95707.38;;;14.03;43.74
73671;BME280;61968;48.178;11.566;2023-05-20T05:04:49;95710.28;;;14.02;45.89
73671;BME280;61968;48.178;11.566;2023-05-20T05:07:17;95712.69;;;14.03;45.68
73671;BME280;61968;48.178;11.566;2023-05-20T05:09:44;95710.06;;;14.09;44.98
73671;BME280;61968;48.178;11.566;2023-05-20T05:12:10;95715.59;;;14.02;44.80
73671;BME280;61968;48.178;11.566;2023-05-20T05:14:37;95714.28;;;14.04;45.36
73671;BME280;61968;48.178;11.566;2023-05-20T05:17:03;95713.28;;;14.11;45.10
73671;BME280;61968;48.178;11.566;2023-05-20T05:19:30;95707.28;;;14.25;44.00
73671;BME280;61968;48.178;11.566;2023-05-20T05:21:56;95705.09;;;14.17;44.55
73671;BME280;61968;48.178;11.566;2023-05-20T05:24:24;95696.78;;;13.76;45.33
73671;BME280;61968;48.178;11.566;2023-05-20T05:26:52;95690.94;;;13.79;45.16
73671;BME280;61968;48.178;11.566;2023-05-20T05:29:18;95693.97;;;13.93;45.10
73671;BME280;61968;48.178;11.566;2023-05-20T05:31:45;95692.16;;;13.94;44.16
73671;BME280;61968;48.178;11.566;2023-05-20T05:34:12;95695.00;;;13.87;45.42
73671;BME280;61968;48.178;11.566;2023-05-20T05:36:39;95694.03;;;13.98;45.47
73671;BME280;61968;48.178;11.566;2023-05-20T05:39:06;95696.53;;;14.10;45.21
73671;BME280;61968;48.178;11.566;2023-05-20T05:41:34;95705.69;;;13.92;45.45
73671;BME280;61968;48.178;11.566;2023-05-20T05:44:00;95697.63;;;14.14;44.20
73671;BME280;61968;48.178;11.566;2023-05-20T05:46:27;95693.94;;;14.20;44.71
73671;BME280;61968;48.178;11.566;2023-05-20T05:48:53;95704.38;;;14.27;43.81
73671;BME280;61968;48.178;11.566;2023-05-20T05:51:20;95701.19;;;14.30;44.69
73671;BME280;61968;48.178;11.566;2023-05-20T05:53:48;95714.97;;;14.22;44.52
73671;BME280;61968;48.178;11.566;2023-05-20T05:56:15;95704.34;;;14.22;44.48
73671;BME280;61968;48.178;11.566;2023-05-20T05:58:42;95706.50;;;14.25;44.08
73671;BME280;61968;48.178;11.566;2023-05-20T06:01:09;95705.44;;;14.26;44.05
73671;BME280;61968;48.178;11.566;2023-05-20T06:03:36;95708.81;;;14.16;43.83
73671;BME280;61968;48.178;11.566;2023-05-20T06:06:03;95710.47;;;14.22;44.63
73671;BME280;61968;48.178;11.566;2023-05-20T06:08:29;95707.03;;;14.27;44.57
73671;BME280;61968;48.178;11.566;2023-05-20T06:10:56;95709.81;;;14.37;45.26
73671;BME280;61968;48.178;11.566;2023-05-20T06:13:22;95711.50;;;14.54;44.54
73671;BME280;61968;48.178;11.566;2023-05-20T06:15:50;95709.19;;;14.62;44.40
73671;BME280;61968;48.178;11.566;2023-05-20T06:18:17;95708.16;;;14.68;44.17
73671;BME280;61968;48.178;11.566;2023-05-20T06:20:44;95717.53;;;14.81;43.27
73671;BME280;61968;48.178;11.566;2023-05-20T06:23:10;95702.31;;;14.71;44.27
73671;BME280;61968;48.178;11.566;2023-05-20T06:25:37;95704.50;;;14.80;43.23
73671;BME280;61968;48.178;11.566;2023-05-20T06:28:03;95713.28;;;14.80;42.98
73671;BME280;61968;48.178;11.566;2023-05-20T06:30:30;95708.44;;;14.72;43.92
73671;BME280;61968;48.178;11.566;2023-05-20T06:32:58;95708.22;;;14.79;43.36
73671;BME280;61968;48.178;11.566;2023-05-20T06:35:24;95701.03;;;14.79;43.72
73671;BME280;61968;48.178;11.566;2023-05-20T06:37:51;95697.34;;;14.85;43.72
73671;BME280;61968;48.178;11.566;2023-05-20T06:40:18;95703.47;;;14.86;42.87
73671;BME280;61968;48.178;11.566;2023-05-20T06:42:45;95707.91;;;14.75;42.95
73671;BME280;61968;48.178;11.566;2023-05-20T06:45:11;95702.88;;;14.73;43.63
73671;BME280;61968;48.178;11.566;2023-05-20T06:47:38;95701.00;;;14.74;42.89
73671;BME280;61968;48.178;11.566;2023-05-20T06:50:06;95698.56;;;14.67;43.16
73671;BME280;61968;48.178;11.566;2023-05-20T06:52:33;95699.63;;;14.66;43.53
73671;BME280;61968;48.178;11.566;2023-05-20T06:54:59;95697.72;;;14.62;42.94
73671;BME280;61968;48.178;11.566;2023-05-20T06:57:26;95701.47;;;14.61;43.42
73671;BME280;61968;48.178;11.566;2023-05-20T06:59:53;95691.91;;;14.65;43.25
73671;BME280;61968;48.178;11.566;2023-05-20T07:02:20;95690.31;;;14.69;42.99
73671;BME280;61968;48.178;11.566;2023-05-20T07:04:47;95687.94;;;14.67;42.77
73671;BME280;61968;48.178;11.566;2023-05-20T07:07:14;95688.72;;;14.68;42.44
73671;BME280;61968;48.178;11.566;2023-05-20T07:09:42;95699.03;;;14.59;42.99
73671;BME280;61968;48.178;11.566;2023-05-20T07:12:08;95688.72;;;14.68;42.95
73671;BME280;61968;48.178;11.566;2023-05-20T07:14:35;95685.59;;;14.76;42.71
73671;BME280;61968;48.178;11.566;2023-05-20T07:17:01;95688.22;;;14.71;42.78
73671;BME280;61968;48.178;11.566;2023-05-20T07:19:28;95680.78;;;14.73;42.72
73671;BME280;61968;48.178;11.566;2023-05-20T07:21:54;95677.09;;;14.79;42.45
73671;BME280;61968;48.178;11.566;2023-05-20T07:24:22;95686.63;;;14.75;42.49
73671;BME280;61968;48.178;11.566;2023-05-20T07:26:48;95687.19;;;14.77;42.56
73671;BME280;61968;48.178;11.566;2023-05-20T07:29:15;95686.91;;;14.73;42.12
73671;BME280;61968;48.178;11.566;2023-05-20T07:31:42;95679.34;;;14.60;42.50
73671;BME280;61968;48.178;11.566;2023-05-20T07:34:08;95670.56;;;14.60;42.89
73671;BME280;61968;48.178;11.566;2023-05-20T07:36:35;95674.88;;;14.66;42.86
73671;BME280;61968;48.178;11.566;2023-05-20T07:39:02;95676.50;;;14.67;42.43
73671;BME280;61968;48.178;11.566;2023-05-20T07:41:31;95679.66;;;14.64;42.62
73671;BME280;61968;48.178;11.566;2023-05-20T07:43:58;95671.41;;;14.65;42.46
73671;BME280;61968;48.178;11.566;2023-05-20T07:46:25;95673.28;;;14.65;42.48
73671;BME280;61968;48.178;11.566;2023-05-20T07:48:51;95677.00;;;14.64;42.63
73671;BME280;61968;48.178;11.566;2023-05-20T07:51:18;95686.56;;;14.65;42.44
73671;BME280;61968;48.178;11.566;2023-05-20T07:53:44;95676.97;;;14.59;42.23
73671;BME280;61968;48.178;11.566;2023-05-20T07:56:11;95674.03;;;14.60;42.72
73671;BME280;61968;48.178;11.566;2023-05-20T07:58:40;95674.66;;;14.78;42.17
73671;BME280;61968;48.178;11.566;2023-05-20T08:01:07;95673.91;;;14.82;42.21
73671;BME280;61968;48.178;11.566;2023-05-20T08:03:34;95679.22;;;14.82;41.92
73671;BME280;61968;48.178;11.566;2023-05-20T08:06:01;95671.50;;;14.81;41.89
73671;BME280;61968;48.178;11.566;2023-05-20T08:08:28;95664.31;;;14.81;41.71
73671;BME280;61968;48.178;11.566;2023-05-20T08:10:55;95667.47;;;14.78;42.03
73671;BME280;61968;48.178;11.566;2023-05-20T08:13:22;95670.97;;;14.84;42.06
73671;BME280;61968;48.178;11.566;2023-05-20T08:15:51;95662.75;;;14.90;41.83
73671;BME280;61968;48.178;11.566;2023-05-20T08:18:18;95660.41;;;14.99;41.08
73671;BME280;61968;48.178;11.566;2023-05-20T08:20:45;95655.34;;;15.03;41.64
73671;BME280;61968;48.178;11.566;2023-05-20T08:23:12;95655.66;;;15.06;41.57
73671;BME280;61968;48.178;11.566;2023-05-20T08:25:38;95642.84;;;15.08;41.68
73671;BME280;61968;48.178;11.566;2023-05-20T08:28:05;95647.41;;;15.13;40.73
73671;BME280;61968;48.178;11.566;2023-05-20T08:30:32;95648.22;;;15.13;41.30
73671;BME280;61968;48.178;11.566;2023-05-20T08:33:00;95651.72;;;15.19;41.40
73671;BME280;61968;48.178;11.566;2023-05-20T08:35:27;95649.09;;;15.24;41.19
73671;BME280;61968;48.178;11.566;2023-05-20T08:37:53;95644.03;;;15.33;41.44
73671;BME280;61968;48.178;11.566;2023-05-20T08:40:20;95641.13;;;15.39;41.22
73671;BME280;61968;48.178;11.566;2023-05-20T08:42:48;95638.72;;;15.38;41.30
73671;BME280;61968;48.178;11.566;2023-05-20T08:45:17;95635.00;;;15.44;41.11
73671;BME280;61968;48.178;11.566;2023-05-20T08:47:44;95637.94;;;15.43;40.83
73671;BME280;61968;48.178;11.566;2023-05-20T08:50:13;95634.22;;;15.54;40.83
73671;BME280;61968;48.178;11.566;2023-05-20T08:52:42;95642.22;;;15.59;41.05
73671;BME280;61968;48.178;11.566;2023-05-20T08:55:18;95631.31;;;15.55;40.77
73671;BME280;61968;48.178;11.566;2023-05-20T08:57:51;95634.50;;;15.62;40.40
73671;BME280;61968;48.178;11.566;2023-05-20T09:00:19;95632.63;;;15.58;40.39
73671;BME280;61968;48.178;11.566;2023-05-20T09:02:48;95636.91;;;15.64;40.63
73671;BME280;61968;48.178;11.566;2023-05-20T09:05:17;95638.50;;;15.75;40.34
73671;BME280;61968;48.178;11.566;2023-05-20T09:07:44;95629.97;;;15.78;40.20
73671;BME280;61968;48.178;11.566;2023-05-20T09:10:10;95635.31;;;15.78;40.11
73671;BME280;61968;48.178;11.566;2023-05-20T09:12:37;95635.06;;;15.80;40.31
73671;BME280;61968;48.178;11.566;2023-05-20T09:15:05;95633.44;;;15.84;40.32
73671;BME280;61968;48.178;11.566;2023-05-20T09:17:34;95640.13;;;15.92;40.41
73671;BME280;61968;48.178;11.566;2023-05-20T09:20:00;95636.44;;;16.03;40.17
73671;BME280;61968;48.178;11.566;2023-05-20T09:22:29;95630.28;;;16.13;40.02
73671;BME280;61968;48.178;11.566;2023-05-20T09:24:56;95635.38;;;16.09;40.02
73671;BME280;61968;48.178;11.566;2023-05-20T09:27:22;95636.13;;;16.20;39.70
73671;BME280;61968;48.178;11.566;2023-05-20T09:29:49;95631.34;;;16.17;39.40
73671;BME280;61968;48.178;11.566;2023-05-20T09:32:18;95628.41;;;16.18;39.59
73671;BME280;61968;48.178;11.566;2023-05-20T09:34:48;95630.53;;;16.16;39.62
73671;BME280;61968;48.178;11.566;2023-05-20T09:37:17;95632.69;;;16.24;39.45
73671;BME280;61968;48.178;11.566;2023-05-20T09:39:54;95632.16;;;16.27;38.58
73671;BME280;61968;48.178;11.566;2023-05-20T09:42:25;95632.13;;;16.22;39.17
73671;BME280;61968;48.178;11.566;2023-05-20T09:44:53;95634.28;;;16.25;38.91
73671;BME280;61968;48.178;11.566;2023-05-20T09:47:22;95633.22;;;16.21;37.55
73671;BME280;61968;48.178;11.566;2023-05-20T09:49:49;95634.56;;;16.24;38.56
73671;BME280;61968;48.178;11.566;2023-05-20T09:52:17;95630.53;;;16.26;39.00
73671;BME280;61968;48.178;11.566;2023-05-20T09:54:44;95609.72;;;16.28;38.64
73671;BME280;61968;48.178;11.566;2023-05-20T09:57:12;95607.84;;;16.34;38.47
73671;BME280;61968;48.178;11.566;2023-05-20T09:59:40;95609.19;;;16.37;37.70
73671;BME280;61968;48.178;11.566;2023-05-20T10:02:07;95604.94;;;16.30;38.26
73671;BME280;61968;48.178;11.566;2023-05-20T10:04:36;95597.72;;;16.31;38.46
73671;BME280;61968;48.178;11.566;2023-05-20T10:07:20;95607.06;;;16.34;38.53
73671;BME280;61968;48.178;11.566;2023-05-20T10:09:58;95601.69;;;16.49;38.01
73671;BME280;61968;48.178;11.566;2023-05-20T10:12:35;95606.22;;;16.48;38.45
73671;BME280;61968;48.178;11.566;2023-05-20T10:15:11;95602.97;;;16.57;38.64
73671;BME280;61968;48.178;11.566;2023-05-20T10:17:45;95605.69;;;16.51;38.53
73671;BME280;61968;48.178;11.566;2023-05-20T10:20:17;95598.47;;;16.57;38.36
73671;BME280;61968;48.178;11.566;2023-05-20T10:22:54;95585.97;;;16.42;38.39
73671;BME280;61968;48.178;11.566;2023-05-20T10:25:23;95588.34;;;16.49;38.15
73671;BME280;61968;48.178;11.566;2023-05-20T10:28:03;95585.66;;;16.49;38.53
73671;BME280;61968;48.178;11.566;2023-05-20T10:30:32;95592.84;;;16.53;38.50
73671;BME280;61968;48.178;11.566;2023-05-20T10:33:03;95594.72;;;16.58;38.70
73671;BME280;61968;48.178;11.566;2023-05-20T10:35:30;95593.63;;;16.64;37.82
73671;BME280;61968;48.178;11.566;2023-05-20T10:38:06;95591.78;;;16.70;38.54
73671;BME280;61968;48.178;11.566;2023-05-20T10:40:33;95568.53;;;16.70;38.27
73671;BME280;61968;48.178;11.566;2023-05-20T10:43:09;95578.66;;;16.79;38.60
73671;BME280;61968;48.178;11.566;2023-05-20T10:45:46;95569.81;;;16.88;38.84
73671;BME280;61968;48.178;11.566;2023-05-20T10:48:19;95563.59;;;16.98;39.60
73671;BME280;61968;48.178;11.566;2023-05-20T10:50:46;95561.13;;;17.12;39.06
73671;BME280;61968;48.178;11.566;2023-05-20T10:53:13;95561.34;;;17.20;39.09
73671;BME280;61968;48.178;11.566;2023-05-20T10:55:45;95564.50;;;17.28;38.51
73671;BME280;61968;48.178;11.566;2023-05-20T10:58:15;95553.03;;;17.27;37.93
73671;BME280;61968;48.178;11.566;2023-05-20T11:00:42;95561.28;;;17.31;38.12
73671;BME280;61968;48.178;11.566;2023-05-20T11:03:08;95554.84;;;17.37;36.63
73671;BME280;61968;48.178;11.566;2023-05-20T11:05:38;95559.31;;;17.41;36.71
73671;BME280;61968;48.178;11.566;2023-05-20T11:08:06;95553.97;;;17.47;37.54
73671;BME280;61968;48.178;11.566;2023-05-20T11:10:32;95549.94;;;17.54;37.19
73671;BME280;61968;48.178;11.566;2023-05-20T11:13:00;95538.16;;;17.55;36.08
73671;BME280;61968;48.178;11.566;2023-05-20T11:15:30;95541.78;;;17.70;35.85
73671;BME280;61968;48.178;11.566;2023-05-20T11:18:00;95540.13;;;17.74;35.85
73671;BME280;61968;48.178;11.566;2023-05-20T11:20:27;95542.03;;;17.73;36.29
73671;BME280;61968;48.178;11.566;2023-05-20T11:22:54;95547.06;;;17.75;35.88
73671;BME280;61968;48.178;11.566;2023-05-20T11:25:22;95551.06;;;17.77;35.96
73671;BME280;61968;48.178;11.566;2023-05-20T11:27:49;95537.19;;;17.75;35.93
73671;BME280;61968;48.178;11.566;2023-05-20T11:30:16;95535.97;;;17.91;36.64
73671;BME280;61968;48.178;11.566;2023-05-20T11:32:57;95544.16;;;18.05;36.14
73671;BME280;61968;48.178;11.566;2023-05-20T11:35:25;95540.22;;;18.27;36.51
73671;BME280;61968;48.178;11.566;2023-05-20T11:37:54;95541.19;;;18.36;36.71
73671;BME280;61968;48.178;11.566;2023-05-20T11:40:23;95545.69;;;18.11;36.12
73671;BME280;61968;48.178;11.566;2023-05-20T11:42:52;95526.75;;;18.32;36.50
73671;BME280;61968;48.178;11.566;2023-05-20T11:45:18;95535.19;;;18.44;36.93
73671;BME280;61968;48.178;11.566;2023-05-20T11:47:45;95527.16;;;18.44;36.21
73671;BME280;61968;48.178;11.566;2023-05-20T11:50:17;95529.78;;;18.49;36.34
73671;BME280;61968;48.178;11.566;2023-05-20T11:52:43;95521.84;;;18.63;35.75
73671;BME280;61968;48.178;11.566;2023-05-20T11:55:10;95517.72;;;18.71;36.28
73671;BME280;61968;48.178;11.566;2023-05-20T11:57:37;95519.22;;;18.82;36.08
73671;BME280;61968;48.178;11.566;2023-05-20T12:00:06;95507.63;;;18.87;35.47
73671;BME280;61968;48.178;11.566;2023-05-20T12:02:35;95513.09;;;18.81;34.56
73671;BME280;61968;48.178;11.566;2023-05-20T12:05:01;95511.63;;;18.89;34.36
73671;BME280;61968;48.178;11.566;2023-05-20T12:07:29;95512.28;;;19.00;35.17
73671;BME280;61968;48.178;11.566;2023-05-20T12:09:56;95497.53;;;19.02;35.51
73671;BME280;61968;48.178;11.566;2023-05-20T12:12:22;95508.47;;;19.06;35.20
73671;BME280;61968;48.178;11.566;2023-05-20T12:14:49;95502.88;;;19.21;35.93
73671;BME280;61968;48.178;11.566;2023-05-20T12:17:16;95505.47;;;19.26;35.39
73671;BME280;61968;48.178;11.566;2023-05-20T12:19:42;95505.09;;;19.33;35.64
73671;BME280;61968;48.178;11.566;2023-05-20T12:22:09;95500.75;;;19.37;34.80
73671;BME280;61968;48.178;11.566;2023-05-20T12:24:37;95509.19;;;19.44;34.70
73671;BME280;61968;48.178;11.566;2023-05-20T12:27:04;95501.41;;;19.48;34.72
73671;BME280;61968;48.178;11.566;2023-05-20T12:29:31;95486.34;;;19.52;34.03
73671;BME280;61968;48.178;11.566;2023-05-20T12:31:57;95486.91;;;19.49;34.43
73671;BME280;61968;48.178;11.566;2023-05-20T12:34:24;95482.34;;;19.49;35.02
73671;BME280;61968;48.178;11.566;2023-05-20T12:36:50;95483.13;;;19.50;35.20
73671;BME280;61968;48.178;11.566;2023-05-20T12:39:17;95484.44;;;19.53;35.28
73671;BME280;61968;48.178;11.566;2023-05-20T12:41:45;95481.69;;;19.58;35.39
73671;BME280;61968;48.178;11.566;2023-05-20T12:44:12;95487.56;;;19.60;35.34
73671;BME280;61968;48.178;11.566;2023-05-20T12:46:38;95496.69;;;19.59;34.99
73671;BME280;61968;48.178;11.566;2023-05-20T12:49:05;95486.03;;;19.54;34.29
73671;BME280;61968;48.178;11.566;2023-05-20T12:51:32;95483.78;;;19.61;35.05